createdAt,value
2018-09-08T00:00:08.718Z,14.90
2018-09-08T00:02:40.741Z,13.20
2018-09-08T00:05:09.944Z,15.73
2018-09-08T00:07:41.487Z,13.93
2018-09-08T00:10:10.861Z,13.67
2018-09-08T00:12:39.403Z,13.53
2018-09-08T00:15:17.738Z,14.30
2018-09-08T00:17:51.028Z,15.00
2018-09-08T00:20:24.417Z,13.77
2018-09-08T00:22:57.870Z,14.90
2018-09-08T00:25:31.263Z,15.23
2018-09-08T00:28:17.969Z,14.03
2018-09-08T00:30:47.615Z,14.60
2018-09-08T00:33:15.778Z,13.67
2018-09-08T00:35:43.974Z,14.30
2018-09-08T00:38:12.254Z,13.83
2018-09-08T00:40:40.808Z,12.13
2018-09-08T00:43:09.346Z,13.90
2018-09-08T00:45:37.728Z,13.00
2018-09-08T00:48:08.992Z,12.63
2018-09-08T00:50:37.541Z,13.60
2018-09-08T00:53:05.940Z,14.10
2018-09-08T00:55:34.192Z,14.00
2018-09-08T00:58:02.487Z,14.30
2018-09-08T01:00:31.998Z,12.10
2018-09-08T01:03:00.807Z,11.53
2018-09-08T01:05:29.286Z,12.50
2018-09-08T01:07:57.365Z,15.10
2018-09-08T01:10:25.905Z,13.03
2018-09-08T01:12:53.928Z,13.43
2018-09-08T01:15:21.928Z,14.27
2018-09-08T01:17:49.960Z,11.23
2018-09-08T01:20:18.480Z,13.00
2018-09-08T01:22:46.789Z,11.80
2018-09-08T01:25:15.021Z,12.90
2018-09-08T01:27:44.923Z,12.30
2018-09-08T01:30:13.021Z,11.47
2018-09-08T01:32:41.259Z,13.00
2018-09-08T01:35:10.937Z,13.70
2018-09-08T01:37:39.330Z,14.60
2018-09-08T01:40:08.428Z,13.10
2018-09-08T01:42:39.516Z,13.77
2018-09-08T01:45:08.125Z,13.43
2018-09-08T01:47:36.304Z,14.40
2018-09-08T01:50:06.124Z,12.50
2018-09-08T01:52:34.965Z,13.60
2018-09-08T01:55:03.795Z,11.90
2018-09-08T01:57:32.141Z,13.23
2018-09-08T02:00:00.329Z,13.30
2018-09-08T02:02:28.621Z,12.93
2018-09-08T02:04:56.943Z,14.40
2018-09-08T02:07:25.220Z,11.97
2018-09-08T02:09:53.369Z,14.17
2018-09-08T02:12:21.397Z,12.73
2018-09-08T02:14:49.408Z,12.87
2018-09-08T02:17:17.809Z,14.00
2018-09-08T02:19:46.155Z,12.40
2018-09-08T02:22:14.311Z,12.03
2018-09-08T02:24:42.661Z,13.00
2018-09-08T02:27:10.842Z,11.87
2018-09-08T02:29:39.232Z,13.40
2018-09-08T02:32:07.933Z,12.30
2018-09-08T02:34:36.109Z,11.43
2018-09-08T02:37:04.610Z,12.87
2018-09-08T02:39:33.233Z,11.93
2018-09-08T02:42:01.340Z,13.17
2018-09-08T02:44:29.382Z,12.73
2018-09-08T02:46:57.384Z,9.73
2018-09-08T02:49:29.852Z,11.97
2018-09-08T02:51:57.270Z,11.97
2018-09-08T02:54:24.681Z,12.80
2018-09-08T02:56:52.121Z,12.27
2018-09-08T02:59:19.558Z,11.90
2018-09-08T03:01:47.297Z,11.70
2018-09-08T03:04:14.867Z,11.37
2018-09-08T03:06:42.668Z,12.07
2018-09-08T03:09:10.318Z,11.60
2018-09-08T03:11:38.097Z,11.97
2018-09-08T03:14:05.565Z,11.53
2018-09-08T03:16:33.065Z,11.47
2018-09-08T03:19:00.756Z,13.30
2018-09-08T03:21:28.256Z,12.90
2018-09-08T03:23:55.661Z,12.20
2018-09-08T03:26:23.313Z,11.40
2018-09-08T03:28:50.718Z,12.63
2018-09-08T03:31:18.228Z,13.03
2018-09-08T03:33:45.733Z,12.37
2018-09-08T03:36:13.386Z,11.83
2018-09-08T03:38:41.010Z,12.87
2018-09-08T03:41:08.677Z,12.80
2018-09-08T03:43:36.406Z,13.63
2018-09-08T03:46:04.241Z,13.57
2018-09-08T03:48:31.860Z,13.13
2018-09-08T03:50:59.269Z,13.67
2018-09-08T03:53:26.853Z,12.13
2018-09-08T03:55:54.253Z,12.10
2018-09-08T03:58:21.656Z,12.63
2018-09-08T04:00:49.152Z,11.80
2018-09-08T04:03:17.389Z,11.20
2018-09-08T04:05:46.172Z,12.37
2018-09-08T04:08:14.547Z,12.10
2018-09-08T04:10:42.902Z,11.50
2018-09-08T04:13:11.298Z,10.77
2018-09-08T04:15:40.613Z,11.50
2018-09-08T04:18:09.262Z,11.90
2018-09-08T04:20:39.277Z,10.40
2018-09-08T04:23:08.129Z,11.03
2018-09-08T04:25:36.734Z,11.53
2018-09-08T04:28:07.224Z,11.03
2018-09-08T04:30:35.702Z,10.37
2018-09-08T04:33:06.070Z,10.67
2018-09-08T04:35:35.348Z,10.70
2018-09-08T04:38:04.077Z,12.80
2018-09-08T04:40:33.351Z,11.73
2018-09-08T04:43:02.269Z,10.87
2018-09-08T04:45:34.118Z,11.37
2018-09-08T04:48:03.865Z,13.07
2018-09-08T04:50:37.575Z,12.30
2018-09-08T04:53:06.677Z,11.60
2018-09-08T04:55:34.837Z,12.57
2018-09-08T04:58:06.229Z,13.00
2018-09-08T05:00:34.356Z,11.17
2018-09-08T05:03:05.131Z,12.20
2018-09-08T05:05:37.742Z,14.57
2018-09-08T05:08:06.636Z,14.10
2018-09-08T05:10:35.679Z,12.50
2018-09-08T05:13:05.490Z,13.00
2018-09-08T05:15:33.912Z,13.57
2018-09-08T05:18:02.482Z,12.67
2018-09-08T05:20:31.447Z,15.23
2018-09-08T05:26:04.707Z,12.50
2018-09-08T05:28:32.835Z,12.87
2018-09-08T05:31:03.375Z,12.83
2018-09-08T05:33:32.891Z,16.40
2018-09-08T05:36:01.150Z,14.90
2018-09-08T05:38:29.376Z,15.57
2018-09-08T05:40:57.525Z,12.57
2018-09-08T05:43:26.697Z,16.47
2018-09-08T05:45:55.175Z,13.20
2018-09-08T05:48:23.467Z,13.40
2018-09-08T05:50:51.932Z,10.90
2018-09-08T05:53:20.439Z,14.00
2018-09-08T05:55:49.036Z,12.70
2018-09-08T05:58:17.449Z,10.57
2018-09-08T06:00:45.921Z,14.03
2018-09-08T06:03:14.153Z,10.87
2018-09-08T06:05:42.461Z,13.30
2018-09-08T06:08:10.854Z,11.20
2018-09-08T06:10:39.548Z,11.23
2018-09-08T06:13:07.987Z,12.10
2018-09-08T06:15:36.470Z,11.40
2018-09-08T06:18:04.871Z,12.20
2018-09-08T06:20:33.277Z,12.80
2018-09-08T06:23:01.422Z,12.03
2018-09-08T06:25:29.585Z,12.77
2018-09-08T06:27:58.311Z,11.03
2018-09-08T06:30:27.888Z,11.07
2018-09-08T06:32:56.252Z,10.70
2018-09-08T06:35:24.387Z,12.30
2018-09-08T06:37:55.624Z,12.60
2018-09-08T06:40:23.845Z,11.20
2018-09-08T06:42:52.149Z,12.37
2018-09-08T06:45:20.420Z,11.90
2018-09-08T06:47:49.161Z,13.07
2018-09-08T06:50:17.709Z,12.00
2018-09-08T06:52:47.222Z,14.27
2018-09-08T06:55:15.946Z,11.80
2018-09-08T06:57:44.517Z,10.43
2018-09-08T07:00:23.505Z,10.00
2018-09-08T07:02:51.881Z,10.80
2018-09-08T07:05:30.113Z,12.20
2018-09-08T07:10:43.684Z,10.13
2018-09-08T07:18:39.890Z,11.07
2018-09-08T07:21:09.091Z,8.27
2018-09-08T07:23:38.655Z,8.90
2018-09-08T07:26:08.298Z,9.10
2018-09-08T07:28:37.458Z,8.83
2018-09-08T07:33:48.573Z,7.30
2018-09-08T07:39:02.686Z,6.93
2018-09-08T07:46:54.685Z,5.47
2018-09-08T07:49:37.052Z,6.73
2018-09-08T07:52:06.471Z,8.17
2018-09-08T07:54:35.058Z,7.37
2018-09-08T07:57:03.433Z,7.53
2018-09-08T07:59:31.869Z,7.03
2018-09-08T08:02:01.090Z,8.77
2018-09-08T08:04:29.566Z,8.23
2018-09-08T08:06:59.217Z,7.00
2018-09-08T08:09:27.696Z,6.40
2018-09-08T08:11:55.839Z,6.20
2018-09-08T08:17:04.836Z,7.73
2018-09-08T08:19:34.138Z,6.47
2018-09-08T08:22:08.636Z,6.57
2018-09-08T08:24:39.453Z,7.43
2018-09-08T08:27:08.553Z,6.03
2018-09-08T08:29:38.130Z,7.00
2018-09-08T08:32:09.772Z,7.23
2018-09-08T08:34:39.412Z,7.70
2018-09-08T08:37:09.152Z,7.13
2018-09-08T08:39:38.437Z,7.40
2018-09-08T08:42:08.449Z,5.90
2018-09-08T08:44:42.008Z,7.53
2018-09-08T08:47:19.425Z,7.37
2018-09-08T08:51:58.563Z,7.50
2018-09-08T08:54:39.810Z,6.50
2018-09-08T08:59:47.574Z,7.87
2018-09-08T09:13:44.329Z,6.20
2018-09-08T09:19:05.082Z,7.17
2018-09-08T09:21:49.479Z,7.20
2018-09-08T09:27:03.929Z,7.73
2018-09-08T09:29:40.107Z,6.50
2018-09-08T09:32:19.123Z,6.60
2018-09-08T09:37:27.472Z,7.80
2018-09-08T09:39:58.611Z,8.47
2018-09-08T09:42:30.237Z,7.13
2018-09-08T09:44:59.973Z,8.50
2018-09-08T09:50:27.351Z,6.33
2018-09-08T09:52:58.804Z,7.53
2018-09-08T09:55:27.650Z,6.90
2018-09-08T09:58:09.378Z,6.50
2018-09-08T10:00:48.961Z,6.77
2018-09-08T10:08:26.906Z,6.73
2018-09-08T10:10:57.557Z,7.57
2018-09-08T10:13:31.260Z,7.30
2018-09-08T10:18:43.578Z,5.93
2018-09-08T10:24:05.152Z,7.20
2018-09-08T10:26:32.295Z,7.53
2018-09-08T10:42:37.322Z,7.37
2018-09-08T10:45:07.480Z,6.57
2018-09-08T10:47:36.816Z,6.30
2018-09-08T10:52:49.478Z,6.97
2018-09-08T10:55:19.824Z,7.13
2018-09-08T11:00:51.980Z,5.90
2018-09-08T11:03:26.188Z,6.83
2018-09-08T11:05:54.567Z,6.50
2018-09-08T11:08:26.383Z,6.13
2018-09-08T11:13:30.469Z,6.63
2018-09-08T11:18:35.993Z,7.93
2018-09-08T11:21:04.317Z,7.70
2018-09-08T11:23:33.980Z,7.00
2018-09-08T11:26:02.697Z,6.97
2018-09-08T11:28:40.679Z,6.90
2018-09-08T11:31:09.919Z,6.73
2018-09-08T11:33:41.215Z,6.33
2018-09-08T11:36:10.063Z,6.87
2018-09-08T11:38:38.878Z,7.07
2018-09-08T11:41:07.202Z,7.00
2018-09-08T11:43:37.583Z,6.60
2018-09-08T11:46:10.009Z,6.77
2018-09-08T11:48:38.656Z,6.90
2018-09-08T11:51:06.877Z,6.63
2018-09-08T11:56:08.999Z,6.50
2018-09-08T11:58:38.121Z,6.60
2018-09-08T12:01:06.499Z,6.27
2018-09-08T12:03:37.197Z,6.23
2018-09-08T12:06:05.943Z,6.00
2018-09-08T12:08:34.643Z,6.17
2018-09-08T12:11:03.253Z,7.63
2018-09-08T12:13:32.070Z,6.53
2018-09-08T12:16:00.242Z,6.43
2018-09-08T12:18:28.766Z,5.40
2018-09-08T12:20:56.807Z,5.97
2018-09-08T12:23:25.999Z,5.60
2018-09-08T12:25:54.265Z,6.40
2018-09-08T12:28:31.154Z,5.80
2018-09-08T12:30:59.605Z,6.03
2018-09-08T12:33:28.175Z,6.17
2018-09-08T12:35:56.557Z,6.47
2018-09-08T12:38:25.151Z,6.97
2018-09-08T12:43:39.326Z,6.00
2018-09-08T12:46:12.266Z,6.30
2018-09-08T12:48:40.727Z,5.20
2018-09-08T12:51:12.376Z,5.77
2018-09-08T12:53:41.487Z,6.30
2018-09-08T12:58:44.438Z,6.27
2018-09-08T13:03:56.564Z,5.90
2018-09-08T13:06:26.246Z,5.67
2018-09-08T13:08:55.325Z,5.50
2018-09-08T13:11:24.387Z,6.37
2018-09-08T13:13:53.145Z,7.30
2018-09-08T13:16:21.281Z,6.50
2018-09-08T13:18:49.696Z,7.03
2018-09-08T13:21:18.361Z,5.00
2018-09-08T13:23:46.750Z,6.67
2018-09-08T13:26:15.283Z,7.20
2018-09-08T13:28:43.941Z,5.37
2018-09-08T13:31:12.708Z,5.10
2018-09-08T13:33:41.681Z,5.67
2018-09-08T13:36:10.099Z,6.50
2018-09-08T13:38:38.877Z,5.23
2018-09-08T13:41:07.430Z,6.13
2018-09-08T13:43:36.480Z,5.60
2018-09-08T13:46:04.990Z,5.80
2018-09-08T13:48:33.810Z,6.40
2018-09-08T13:51:02.279Z,6.17
2018-09-08T13:53:30.867Z,6.60
2018-09-08T13:55:59.305Z,6.07
2018-09-08T13:58:27.399Z,6.47
2018-09-08T14:00:55.647Z,5.87
2018-09-08T14:03:23.805Z,5.43
2018-09-08T14:05:51.999Z,6.60
2018-09-08T14:08:20.305Z,4.83
2018-09-08T14:10:48.462Z,6.33
2018-09-08T14:13:17.244Z,5.60
2018-09-08T14:15:45.709Z,5.70
2018-09-08T14:18:14.433Z,5.30
2018-09-08T14:20:43.089Z,6.30
2018-09-08T14:23:11.487Z,5.57
2018-09-08T14:25:40.100Z,5.63
2018-09-08T14:28:08.697Z,4.67
2018-09-08T14:30:39.712Z,4.83
2018-09-08T14:33:09.894Z,5.70
2018-09-08T14:35:38.868Z,7.00
2018-09-08T14:38:08.493Z,5.90
2018-09-08T14:40:38.055Z,5.20
2018-09-08T14:43:06.605Z,4.60
2018-09-08T14:45:34.917Z,4.33
2018-09-08T14:48:03.209Z,4.67
2018-09-08T14:50:31.664Z,4.67
2018-09-08T14:52:59.932Z,4.77
2018-09-08T14:55:28.063Z,4.67
2018-09-08T14:57:56.177Z,5.20
2018-09-08T15:00:24.265Z,4.93
2018-09-08T15:02:52.816Z,4.87
2018-09-08T15:05:21.079Z,5.60
2018-09-08T15:07:51.052Z,5.50
2018-09-08T15:10:19.277Z,5.50
2018-09-08T15:12:48.377Z,6.33
2018-09-08T15:15:17.627Z,5.13
2018-09-08T15:17:46.302Z,5.73
2018-09-08T15:20:14.828Z,5.70
2018-09-08T15:22:44.048Z,5.70
2018-09-08T15:25:12.945Z,4.97
2018-09-08T15:27:42.265Z,6.90
2018-09-08T15:30:12.762Z,5.07
2018-09-08T15:32:41.395Z,4.90
2018-09-08T15:35:10.311Z,5.33
2018-09-08T15:37:39.316Z,5.50
2018-09-08T15:40:07.902Z,5.33
2018-09-08T15:42:36.063Z,5.90
2018-09-08T15:45:04.324Z,5.33
2018-09-08T15:47:32.461Z,5.33
2018-09-08T15:50:00.945Z,5.40
2018-09-08T15:52:29.412Z,4.83
2018-09-08T15:54:57.616Z,6.50
2018-09-08T15:57:25.673Z,5.90
2018-09-08T15:59:53.996Z,5.23
2018-09-08T16:02:22.357Z,5.87
2018-09-08T16:04:50.430Z,5.70
2018-09-08T16:07:18.701Z,5.27
2018-09-08T16:09:47.763Z,6.10
2018-09-08T16:12:16.229Z,5.93
2018-09-08T16:14:45.055Z,6.20
2018-09-08T16:17:13.543Z,5.77
2018-09-08T16:19:42.494Z,6.07
2018-09-08T16:22:11.330Z,5.80
2018-09-08T16:24:40.142Z,5.47
2018-09-08T16:27:08.576Z,5.73
2018-09-08T16:29:37.760Z,5.40
2018-09-08T16:32:06.237Z,5.30
2018-09-08T16:34:34.817Z,5.70
2018-09-08T16:37:04.072Z,5.00
2018-09-08T16:39:37.666Z,6.10
2018-09-08T16:42:06.428Z,5.90
2018-09-08T16:44:34.812Z,5.07
2018-09-08T16:47:03.165Z,5.00
2018-09-08T16:49:31.564Z,5.80
2018-09-08T16:52:00.899Z,5.57
2018-09-08T16:54:29.204Z,6.70
2018-09-08T16:56:58.038Z,6.13
2018-09-08T16:59:26.290Z,5.60
2018-09-08T17:01:54.882Z,5.37
2018-09-08T17:04:24.298Z,5.60
2018-09-08T17:06:53.033Z,5.70
2018-09-08T17:09:21.679Z,6.23
2018-09-08T17:11:49.968Z,5.53
2018-09-08T17:14:18.196Z,6.60
2018-09-08T17:16:46.490Z,5.60
2018-09-08T17:19:14.790Z,5.80
2018-09-08T17:21:42.953Z,6.10
2018-09-08T17:24:11.658Z,6.30
2018-09-08T17:26:40.343Z,6.07
2018-09-08T17:29:09.108Z,6.37
2018-09-08T17:31:37.507Z,7.17
2018-09-08T17:34:05.924Z,6.80
2018-09-08T17:36:34.425Z,7.13
2018-09-08T17:39:02.798Z,9.23
2018-09-08T17:41:31.041Z,6.90
2018-09-08T17:43:59.304Z,7.40
2018-09-08T17:46:27.574Z,7.67
2018-09-08T17:48:55.809Z,7.13
2018-09-08T17:51:23.903Z,8.87
2018-09-08T17:53:51.960Z,8.83
2018-09-08T17:56:20.192Z,9.30
2018-09-08T17:58:48.398Z,8.87
2018-09-08T18:01:19.558Z,9.90
2018-09-08T18:03:48.586Z,11.00
2018-09-08T18:06:17.046Z,9.87
2018-09-08T18:08:46.210Z,9.20
2018-09-08T18:11:14.496Z,9.40
2018-09-08T18:13:42.740Z,9.73
2018-09-08T18:16:15.066Z,10.00
2018-09-08T18:18:43.495Z,10.47
2018-09-08T18:21:11.757Z,10.47
2018-09-08T18:23:41.310Z,12.07
2018-09-08T18:26:09.726Z,12.17
2018-09-08T18:28:39.031Z,12.00
2018-09-08T18:31:07.564Z,12.00
2018-09-08T18:33:35.826Z,13.10
2018-09-08T18:36:04.252Z,12.30
2018-09-08T18:38:32.681Z,11.87
2018-09-08T18:41:00.775Z,12.57
2018-09-08T18:43:28.948Z,13.40
2018-09-08T18:45:57.066Z,13.80
2018-09-08T18:48:27.243Z,14.77
2018-09-08T18:50:55.361Z,16.93
2018-09-08T18:53:23.800Z,13.30
2018-09-08T18:55:52.217Z,12.00
2018-09-08T18:58:21.036Z,13.80
2018-09-08T19:00:49.295Z,13.30
2018-09-08T19:03:17.750Z,13.60
2018-09-08T19:05:46.673Z,14.37
2018-09-08T19:08:15.033Z,14.90
2018-09-08T19:10:43.450Z,14.00
2018-09-08T19:13:12.080Z,14.57
2018-09-08T19:15:40.770Z,15.77
2018-09-08T19:18:09.623Z,14.20
2018-09-08T19:20:41.065Z,15.03
2018-09-08T19:23:09.663Z,15.40
2018-09-08T19:25:38.469Z,13.10
2018-09-08T19:28:07.094Z,14.17
2018-09-08T19:30:35.402Z,16.50
2018-09-08T19:33:03.783Z,20.50
2018-09-08T19:35:37.862Z,25.40
2018-09-08T19:38:06.408Z,22.37
2018-09-08T19:40:40.952Z,17.57
2018-09-08T19:43:10.088Z,16.87
2018-09-08T19:45:39.310Z,19.70
2018-09-08T19:48:12.088Z,14.63
2018-09-08T19:50:42.178Z,22.13
2018-09-08T19:53:16.373Z,19.00
2018-09-08T19:55:44.979Z,16.00
2018-09-08T19:58:18.736Z,14.27
2018-09-08T20:00:46.866Z,12.87
2018-09-08T20:03:16.037Z,15.90
2018-09-08T20:05:44.982Z,14.40
2018-09-08T20:08:13.409Z,14.73
2018-09-08T20:10:42.511Z,14.10
2018-09-08T20:13:12.169Z,14.73
2018-09-08T20:15:41.372Z,13.90
2018-09-08T20:18:09.957Z,13.70
2018-09-08T20:20:39.288Z,12.80
2018-09-08T20:23:07.791Z,13.53
2018-09-08T20:25:37.172Z,14.73
2018-09-08T20:28:05.856Z,16.10
2018-09-08T20:30:34.314Z,16.23
2018-09-08T20:33:02.468Z,14.43
2018-09-08T20:35:31.794Z,13.67
2018-09-08T20:37:59.813Z,14.77
2018-09-08T20:40:29.048Z,15.43
2018-09-08T20:42:58.349Z,13.93
2018-09-08T20:45:26.374Z,13.50
2018-09-08T20:47:55.151Z,14.00
2018-09-08T20:50:23.639Z,13.30
2018-09-08T20:52:52.002Z,14.90
2018-09-08T20:55:20.383Z,13.87
2018-09-08T20:57:48.565Z,13.73
2018-09-08T21:00:17.493Z,13.70
2018-09-08T21:02:46.162Z,14.43
2018-09-08T21:05:14.544Z,13.87
2018-09-08T21:07:43.372Z,16.70
2018-09-08T21:10:12.242Z,14.97
2018-09-08T21:12:40.914Z,15.80
2018-09-08T21:15:09.706Z,14.43
2018-09-08T21:17:38.760Z,15.73
2018-09-08T21:20:07.397Z,15.63
2018-09-08T21:22:35.736Z,15.43
2018-09-08T21:25:04.252Z,14.77
2018-09-08T21:27:32.412Z,13.03
2018-09-08T21:30:00.797Z,14.17
2018-09-08T21:32:28.824Z,14.20
2018-09-08T21:34:56.958Z,14.27
2018-09-08T21:37:25.080Z,13.23
2018-09-08T21:39:53.396Z,13.93
2018-09-08T21:42:21.704Z,16.30
2018-09-08T21:44:49.814Z,14.70
2018-09-08T21:47:17.990Z,15.47
2018-09-08T21:49:46.333Z,14.33
2018-09-08T21:52:14.701Z,15.30
2018-09-08T21:54:43.175Z,15.37
2018-09-08T21:57:12.189Z,13.20
2018-09-08T21:59:41.014Z,14.07
2018-09-08T22:02:10.327Z,15.83
2018-09-08T22:04:38.814Z,13.97
2018-09-08T22:07:07.441Z,13.87
2018-09-08T22:09:35.888Z,15.53
2018-09-08T22:12:04.538Z,14.83
2018-09-08T22:14:33.190Z,14.73
2018-09-08T22:17:02.260Z,15.10
2018-09-08T22:19:30.364Z,15.70
2018-09-08T22:21:59.685Z,14.30
2018-09-08T22:24:27.732Z,12.90
2018-09-08T22:26:55.803Z,13.33
2018-09-08T22:29:23.853Z,14.03
2018-09-08T22:31:52.253Z,13.73
2018-09-08T22:34:20.382Z,14.20
2018-09-08T22:36:48.763Z,14.13
2018-09-08T22:39:16.986Z,14.87
2018-09-08T22:41:45.527Z,13.50
2018-09-08T22:44:13.917Z,14.20
2018-09-08T22:46:42.177Z,13.73
2018-09-08T22:49:10.784Z,14.07
2018-09-08T22:51:40.118Z,14.37
2018-09-08T22:54:09.870Z,15.87
2018-09-08T22:56:39.095Z,14.70
2018-09-08T22:59:07.857Z,14.03
2018-09-08T23:01:36.310Z,14.73
2018-09-08T23:04:04.481Z,16.00
2018-09-08T23:06:32.571Z,15.67
2018-09-08T23:09:00.667Z,14.87
2018-09-08T23:11:28.859Z,14.30
2018-09-08T23:13:56.954Z,15.60
2018-09-08T23:16:24.976Z,14.40
2018-09-08T23:18:53.058Z,14.60
2018-09-08T23:21:21.418Z,15.73
2018-09-08T23:23:49.725Z,16.20
2018-09-08T23:26:18.355Z,16.00
2018-09-08T23:28:46.442Z,15.67
2018-09-08T23:31:14.684Z,15.73
2018-09-08T23:33:43.404Z,15.60
2018-09-08T23:36:12.144Z,16.83
2018-09-08T23:38:40.648Z,15.47
2018-09-08T23:41:10.122Z,15.20
2018-09-08T23:43:38.655Z,14.40
2018-09-08T23:46:07.099Z,14.77
2018-09-08T23:48:35.364Z,15.13
2018-09-08T23:51:03.620Z,14.60
2018-09-08T23:53:31.694Z,14.80
2018-09-08T23:55:59.913Z,14.23
2018-09-08T23:58:28.300Z,13.70
